createdAt,value
2019-03-16T00:00:17.535Z,12.30
2019-03-16T00:02:46.572Z,12.30
2019-03-16T00:05:15.460Z,12.40
2019-03-16T00:07:44.211Z,12.40
2019-03-16T00:10:13.342Z,12.40
2019-03-16T00:12:42.144Z,12.30
2019-03-16T00:15:11.066Z,12.30
2019-03-16T00:17:40.388Z,12.30
2019-03-16T00:20:09.298Z,12.40
2019-03-16T00:22:38.019Z,12.30
2019-03-16T00:25:06.854Z,12.30
2019-03-16T00:27:35.767Z,12.30
2019-03-16T00:30:05.400Z,12.20
2019-03-16T00:32:34.315Z,12.10
2019-03-16T00:35:03.144Z,12.10
2019-03-16T00:37:31.941Z,12.10
2019-03-16T00:40:00.704Z,12.10
2019-03-16T00:42:29.446Z,12.10
2019-03-16T00:44:58.198Z,12.10
2019-03-16T00:47:27.372Z,12.20
2019-03-16T00:49:56.118Z,12.20
2019-03-16T00:52:24.871Z,12.20
2019-03-16T00:54:53.603Z,12.10
2019-03-16T00:57:22.341Z,12.20
2019-03-16T00:59:51.082Z,12.20
2019-03-16T01:02:27.010Z,12.20
2019-03-16T01:04:50.324Z,12.20
2019-03-16T01:07:19.071Z,12.20
2019-03-16T01:09:47.812Z,12.20
2019-03-16T01:12:16.540Z,12.10
2019-03-16T01:14:45.270Z,12.10
2019-03-16T01:17:14.007Z,12.10
2019-03-16T01:19:42.736Z,12.10
2019-03-16T01:22:11.476Z,12.00
2019-03-16T01:24:40.229Z,12.10
2019-03-16T01:27:08.959Z,12.10
2019-03-16T01:29:37.697Z,12.00
2019-03-16T01:32:06.506Z,12.10
2019-03-16T01:34:35.268Z,12.10
2019-03-16T01:37:04.012Z,12.10
2019-03-16T01:39:32.761Z,12.10
2019-03-16T01:42:01.518Z,12.00
2019-03-16T01:44:30.262Z,12.00
2019-03-16T01:46:59.368Z,12.00
2019-03-16T01:49:28.105Z,12.00
2019-03-16T01:51:56.864Z,12.10
2019-03-16T01:54:25.609Z,12.00
2019-03-16T01:56:54.350Z,12.00
2019-03-16T01:59:24.304Z,12.00
2019-03-16T02:01:53.057Z,12.00
2019-03-16T02:04:21.797Z,12.00
2019-03-16T02:06:50.532Z,12.00
2019-03-16T02:09:19.263Z,12.00
2019-03-16T02:11:47.994Z,11.90
2019-03-16T02:14:16.802Z,11.90
2019-03-16T02:16:45.544Z,11.90
2019-03-16T02:19:14.287Z,11.90
2019-03-16T02:21:43.417Z,11.90
2019-03-16T02:24:12.356Z,11.80
2019-03-16T02:26:41.104Z,11.90
2019-03-16T02:29:09.836Z,12.00
2019-03-16T02:31:38.594Z,12.00
2019-03-16T02:34:07.401Z,12.10
2019-03-16T02:36:36.169Z,12.10
2019-03-16T02:39:07.130Z,12.10
2019-03-16T02:41:35.880Z,12.10
2019-03-16T02:44:04.700Z,12.10
2019-03-16T02:46:33.441Z,12.00
2019-03-16T02:49:02.197Z,12.00
2019-03-16T02:51:30.927Z,12.00
2019-03-16T02:53:59.664Z,12.00
2019-03-16T02:56:28.404Z,12.00
2019-03-16T02:58:57.130Z,12.00
2019-03-16T03:01:25.868Z,12.00
2019-03-16T03:03:54.627Z,12.00
2019-03-16T03:06:23.358Z,12.00
2019-03-16T03:08:52.102Z,12.00
2019-03-16T03:11:21.455Z,12.00
2019-03-16T03:13:50.191Z,12.00
2019-03-16T03:16:19.059Z,12.00
2019-03-16T03:18:49.835Z,12.10
2019-03-16T03:21:18.294Z,12.00
2019-03-16T03:23:47.019Z,12.00
2019-03-16T03:26:15.761Z,12.10
2019-03-16T03:28:44.505Z,12.00
2019-03-16T03:31:13.236Z,12.00
2019-03-16T03:33:59.248Z,12.00
2019-03-16T03:36:13.787Z,11.90
2019-03-16T03:38:42.542Z,11.90
2019-03-16T03:41:11.281Z,11.90
2019-03-16T03:43:40.280Z,11.90
2019-03-16T03:46:09.014Z,11.90
2019-03-16T03:48:37.761Z,11.90
2019-03-16T03:51:06.562Z,11.90
2019-03-16T03:53:35.319Z,11.90
2019-03-16T03:56:04.205Z,11.80
2019-03-16T03:58:33.113Z,11.80
2019-03-16T04:01:03.445Z,11.80
2019-03-16T04:03:32.259Z,11.80
2019-03-16T04:06:01.092Z,11.80
2019-03-16T04:08:29.909Z,11.70
2019-03-16T04:10:58.640Z,11.70
2019-03-16T04:13:27.358Z,11.80
2019-03-16T04:15:56.120Z,11.80
2019-03-16T04:18:24.857Z,11.80
2019-03-16T04:20:53.612Z,11.80
2019-03-16T04:23:23.187Z,11.80
2019-03-16T04:25:52.080Z,11.80
2019-03-16T04:28:20.820Z,11.80
2019-03-16T04:30:49.559Z,11.90
2019-03-16T04:33:18.291Z,11.80
2019-03-16T04:35:47.040Z,11.90
2019-03-16T04:38:15.769Z,11.90
2019-03-16T04:40:44.837Z,11.80
2019-03-16T04:43:13.842Z,11.80
2019-03-16T04:45:42.658Z,11.80
2019-03-16T04:48:11.596Z,11.80
2019-03-16T04:50:40.341Z,11.70
2019-03-16T04:53:09.072Z,11.70
2019-03-16T04:55:37.820Z,11.70
2019-03-16T04:58:06.547Z,11.70
2019-03-16T05:00:35.296Z,11.60
2019-03-16T05:03:04.111Z,11.60
2019-03-16T05:05:32.853Z,11.70
2019-03-16T05:08:01.584Z,11.70
2019-03-16T05:10:30.327Z,11.70
2019-03-16T05:12:59.164Z,11.70
2019-03-16T05:15:27.893Z,11.70
2019-03-16T05:17:56.647Z,11.70
2019-03-16T05:20:25.385Z,11.70
2019-03-16T05:22:54.116Z,11.70
2019-03-16T05:25:22.887Z,11.70
2019-03-16T05:27:51.660Z,11.80
2019-03-16T05:30:20.396Z,11.80
2019-03-16T05:32:49.130Z,11.80
2019-03-16T05:35:18.186Z,11.80
2019-03-16T05:37:46.933Z,11.80
2019-03-16T05:40:15.685Z,11.70
2019-03-16T05:42:44.403Z,11.70
2019-03-16T05:45:13.285Z,11.80
2019-03-16T05:47:42.018Z,11.80
2019-03-16T05:50:11.135Z,11.80
2019-03-16T05:52:39.862Z,11.80
2019-03-16T05:55:08.852Z,11.90
2019-03-16T05:57:37.664Z,11.90
2019-03-16T06:00:09.772Z,11.90
2019-03-16T06:02:38.451Z,11.90
2019-03-16T06:05:10.833Z,11.80
2019-03-16T06:07:38.847Z,11.80
2019-03-16T06:10:07.892Z,11.80
2019-03-16T06:12:36.638Z,11.80
2019-03-16T06:15:05.793Z,11.80
2019-03-16T06:17:34.541Z,11.90
2019-03-16T06:20:03.491Z,11.90
2019-03-16T06:22:32.222Z,11.90
2019-03-16T06:25:00.973Z,11.90
2019-03-16T06:27:29.714Z,11.90
2019-03-16T06:29:58.452Z,12.00
2019-03-16T06:32:27.264Z,12.00
2019-03-16T06:34:57.401Z,12.00
2019-03-16T06:37:26.106Z,12.00
2019-03-16T06:39:54.842Z,12.00
2019-03-16T06:42:23.577Z,12.00
2019-03-16T06:44:52.308Z,12.00
2019-03-16T06:47:23.151Z,11.90
2019-03-16T06:49:51.528Z,12.00
2019-03-16T06:52:20.397Z,12.00
2019-03-16T06:54:49.214Z,11.90
2019-03-16T06:57:17.995Z,11.90
2019-03-16T06:59:46.746Z,11.90
2019-03-16T07:02:15.556Z,12.00
2019-03-16T07:04:44.301Z,12.00
2019-03-16T07:07:13.046Z,11.90
2019-03-16T07:09:41.820Z,11.90
2019-03-16T07:12:10.553Z,11.80
2019-03-16T07:14:39.309Z,11.80
2019-03-16T07:17:08.087Z,11.80
2019-03-16T07:19:36.855Z,11.70
2019-03-16T07:22:05.670Z,11.50
2019-03-16T07:24:34.447Z,11.50
2019-03-16T07:27:03.185Z,11.40
2019-03-16T07:29:31.923Z,11.30
2019-03-16T07:32:00.746Z,11.30
2019-03-16T07:34:29.492Z,11.20
2019-03-16T07:36:58.236Z,11.20
2019-03-16T07:39:26.973Z,11.20
2019-03-16T07:41:55.802Z,11.10
2019-03-16T07:44:24.692Z,11.10
2019-03-16T07:46:53.508Z,11.10
2019-03-16T07:49:22.293Z,11.10
2019-03-16T07:51:51.072Z,11.10
2019-03-16T07:54:19.825Z,11.10
2019-03-16T07:56:48.582Z,11.10
2019-03-16T07:59:17.710Z,11.10
2019-03-16T08:01:47.082Z,11.20
2019-03-16T08:04:16.021Z,11.20
2019-03-16T08:06:45.134Z,11.20
2019-03-16T08:09:14.810Z,11.30
2019-03-16T08:11:43.888Z,11.30
2019-03-16T08:14:12.935Z,11.40
2019-03-16T08:16:42.036Z,11.50
2019-03-16T08:19:10.952Z,11.50
2019-03-16T08:21:40.049Z,11.60
2019-03-16T08:24:08.962Z,11.60
2019-03-16T08:26:38.210Z,11.70
2019-03-16T08:29:11.266Z,11.60
2019-03-16T08:31:43.343Z,11.70
2019-03-16T08:34:15.586Z,11.70
2019-03-16T08:36:51.004Z,11.80
2019-03-16T08:39:26.127Z,11.80
2019-03-16T08:41:58.597Z,11.80
2019-03-16T08:44:33.056Z,11.80
2019-03-16T08:47:03.060Z,11.80
2019-03-16T08:49:35.261Z,11.90
2019-03-16T08:52:06.751Z,11.80
2019-03-16T08:54:42.814Z,11.80
2019-03-16T08:57:20.390Z,11.90
2019-03-16T08:59:55.222Z,11.80
2019-03-16T09:02:26.814Z,11.80
2019-03-16T09:05:01.401Z,11.70
2019-03-16T09:07:34.248Z,11.80
2019-03-16T09:10:07.224Z,11.70
2019-03-16T09:12:38.725Z,11.80
2019-03-16T09:15:10.135Z,11.70
2019-03-16T09:17:42.771Z,11.80
2019-03-16T09:20:13.038Z,11.80
2019-03-16T09:22:46.152Z,11.70
2019-03-16T09:25:20.766Z,11.60
2019-03-16T09:27:53.121Z,11.60
2019-03-16T09:30:22.456Z,11.70
2019-03-16T09:32:56.243Z,11.70
2019-03-16T09:35:26.170Z,11.60
2019-03-16T09:38:01.308Z,11.60
2019-03-16T09:40:31.205Z,11.50
2019-03-16T09:42:59.928Z,11.50
2019-03-16T09:45:29.790Z,11.40
2019-03-16T09:47:58.713Z,11.50
2019-03-16T09:50:27.505Z,11.50
2019-03-16T09:52:56.513Z,11.50
2019-03-16T09:55:25.305Z,11.40
2019-03-16T09:57:54.052Z,11.40
2019-03-16T10:00:22.888Z,11.40
2019-03-16T10:02:51.714Z,11.40
2019-03-16T10:05:21.805Z,11.40
2019-03-16T10:07:51.240Z,11.40
2019-03-16T10:10:19.954Z,11.40
2019-03-16T10:12:51.908Z,11.40
2019-03-16T10:15:20.715Z,11.30
2019-03-16T10:17:49.640Z,11.40
2019-03-16T10:20:18.482Z,11.40
2019-03-16T10:22:47.216Z,11.40
2019-03-16T10:25:16.028Z,11.50
2019-03-16T10:27:44.838Z,11.60
2019-03-16T10:30:13.702Z,11.60
2019-03-16T10:32:42.712Z,11.50
2019-03-16T10:35:12.463Z,11.50
2019-03-16T10:37:41.567Z,11.60
2019-03-16T10:40:10.390Z,11.60
2019-03-16T10:42:39.132Z,11.70
2019-03-16T10:45:08.058Z,11.80
2019-03-16T10:47:36.774Z,12.00
2019-03-16T10:50:06.638Z,12.00
2019-03-16T10:52:35.385Z,12.00
2019-03-16T10:55:05.231Z,12.10
2019-03-16T10:57:33.979Z,12.00
2019-03-16T11:00:02.795Z,12.10
2019-03-16T11:02:31.608Z,12.20
2019-03-16T11:05:00.397Z,12.30
2019-03-16T11:07:29.177Z,12.40
2019-03-16T11:22:14.921Z,12.80
2019-03-16T11:24:43.646Z,13.00
2019-03-16T11:27:12.383Z,12.90
2019-03-16T11:29:44.480Z,12.90
2019-03-16T11:32:13.377Z,12.80
2019-03-16T11:34:42.585Z,12.70
2019-03-16T11:37:11.382Z,12.60
2019-03-16T11:39:41.327Z,12.60
2019-03-16T11:42:10.953Z,12.70
2019-03-16T11:44:40.084Z,12.70
2019-03-16T11:47:11.286Z,12.60
2019-03-16T11:49:42.104Z,12.70
2019-03-16T11:52:11.380Z,12.60
2019-03-16T11:54:40.207Z,12.60
2019-03-16T11:57:08.989Z,12.60
2019-03-16T11:59:37.742Z,12.70
2019-03-16T12:02:06.562Z,12.70
2019-03-16T12:04:35.355Z,12.70
2019-03-16T12:07:04.244Z,12.70
2019-03-16T12:09:32.998Z,12.60
2019-03-16T12:12:01.759Z,12.60
2019-03-16T12:14:31.166Z,12.60
2019-03-16T12:16:59.926Z,12.70
2019-03-16T12:19:28.702Z,12.60
2019-03-16T12:21:57.459Z,12.70
2019-03-16T12:24:26.209Z,12.90
2019-03-16T12:26:55.073Z,12.80
2019-03-16T12:29:33.543Z,12.70
2019-03-16T12:31:54.294Z,12.60
2019-03-16T12:34:23.039Z,12.60
2019-03-16T12:36:51.786Z,12.60
2019-03-16T12:39:20.515Z,12.50
2019-03-16T12:41:49.268Z,12.40
2019-03-16T12:44:18.471Z,12.30
2019-03-16T12:46:47.238Z,12.20
2019-03-16T12:49:16.083Z,12.20
2019-03-16T12:51:44.815Z,12.10
2019-03-16T12:54:13.635Z,12.00
2019-03-16T12:56:42.374Z,12.00
2019-03-16T12:59:11.210Z,11.80
2019-03-16T13:01:40.007Z,11.60
2019-03-16T13:04:10.245Z,11.50
2019-03-16T13:06:39.069Z,11.50
2019-03-16T13:09:09.840Z,11.40
2019-03-16T13:11:38.662Z,11.40
2019-03-16T13:14:07.582Z,11.40
2019-03-16T13:16:37.423Z,11.40
2019-03-16T13:19:06.354Z,11.60
2019-03-16T13:21:35.149Z,11.50
2019-03-16T13:24:03.981Z,11.60
2019-03-16T13:26:32.808Z,11.60
2019-03-16T13:29:01.544Z,11.60
2019-03-16T13:31:30.380Z,11.60
2019-03-16T13:34:01.861Z,11.70
2019-03-16T13:36:31.762Z,11.70
2019-03-16T13:39:01.473Z,11.70
2019-03-16T13:41:31.244Z,11.80
2019-03-16T13:44:01.465Z,11.80
2019-03-16T13:46:31.355Z,11.70
2019-03-16T13:49:01.134Z,11.70
2019-03-16T13:51:29.909Z,11.60
2019-03-16T13:53:58.720Z,11.60
2019-03-16T13:56:27.452Z,11.60
2019-03-16T13:58:56.759Z,11.50
2019-03-16T14:01:25.662Z,11.40
2019-03-16T14:03:55.258Z,11.30
2019-03-16T14:06:24.012Z,11.30
2019-03-16T14:08:53.178Z,11.40
2019-03-16T14:11:21.983Z,11.50
2019-03-16T14:13:51.417Z,11.50
2019-03-16T14:16:20.444Z,11.60
2019-03-16T14:18:49.370Z,11.70
2019-03-16T14:21:18.167Z,11.60
2019-03-16T14:23:46.921Z,11.60
2019-03-16T14:26:16.136Z,11.50
2019-03-16T14:28:45.020Z,11.50
2019-03-16T14:31:13.772Z,11.50
2019-03-16T14:33:42.608Z,11.50
2019-03-16T14:36:11.493Z,11.50
2019-03-16T14:38:40.655Z,11.60
2019-03-16T14:41:09.484Z,11.60
2019-03-16T14:43:38.232Z,11.70
2019-03-16T14:46:07.032Z,11.70
2019-03-16T14:48:35.828Z,11.70
2019-03-16T14:51:04.766Z,11.70
2019-03-16T14:53:33.879Z,11.70
2019-03-16T14:56:02.653Z,11.80
2019-03-16T14:58:31.494Z,11.70
2019-03-16T15:01:00.249Z,11.70
2019-03-16T15:03:28.989Z,11.70
2019-03-16T15:05:57.926Z,11.70
2019-03-16T15:08:26.724Z,11.70
2019-03-16T15:10:55.489Z,11.60
2019-03-16T15:13:26.794Z,11.60
2019-03-16T15:15:55.244Z,11.60
2019-03-16T15:18:23.970Z,11.60
2019-03-16T15:20:52.737Z,11.50
2019-03-16T15:23:21.754Z,11.60
2019-03-16T15:25:50.572Z,11.60
2019-03-16T15:28:19.319Z,11.70
2019-03-16T15:30:50.857Z,11.70
2019-03-16T15:33:18.665Z,11.70
2019-03-16T15:35:47.449Z,11.70
2019-03-16T15:38:16.284Z,11.70
2019-03-16T15:40:45.093Z,11.70
2019-03-16T15:43:15.342Z,11.70
2019-03-16T15:45:44.070Z,11.70
2019-03-16T15:48:12.819Z,11.70
2019-03-16T15:50:41.546Z,11.70
2019-03-16T15:53:10.275Z,11.70
2019-03-16T15:55:39.009Z,11.70
2019-03-16T15:58:08.746Z,11.70
2019-03-16T16:00:38.043Z,11.60
2019-03-16T16:03:09.129Z,11.70
2019-03-16T16:05:37.343Z,11.70
2019-03-16T16:08:06.203Z,11.70
2019-03-16T16:10:34.963Z,11.70
2019-03-16T16:13:03.785Z,11.70
2019-03-16T16:15:32.550Z,11.70
2019-03-16T16:18:04.459Z,11.80
2019-03-16T16:20:33.224Z,11.90
2019-03-16T16:23:02.036Z,11.90
2019-03-16T16:25:30.812Z,11.90
2019-03-16T16:27:59.546Z,11.90
2019-03-16T16:30:28.368Z,11.90
2019-03-16T16:32:57.267Z,11.90
2019-03-16T16:35:26.919Z,11.90
2019-03-16T16:37:55.704Z,11.90
2019-03-16T16:40:24.462Z,11.90
2019-03-16T16:42:53.284Z,11.80
2019-03-16T16:45:22.030Z,11.80
2019-03-16T16:47:50.859Z,11.80
2019-03-16T16:50:19.650Z,11.80
2019-03-16T16:52:48.532Z,11.80
2019-03-16T16:55:17.355Z,11.80
2019-03-16T16:57:46.276Z,11.80
2019-03-16T17:00:16.164Z,11.80
2019-03-16T17:02:45.036Z,11.80
2019-03-16T17:05:14.318Z,11.80
2019-03-16T17:07:43.070Z,11.70
2019-03-16T17:10:13.319Z,11.80
2019-03-16T17:12:42.195Z,11.70
2019-03-16T17:15:12.248Z,11.70
2019-03-16T17:17:41.588Z,11.70
2019-03-16T17:20:11.144Z,11.70
2019-03-16T17:22:39.883Z,11.70
2019-03-16T17:25:08.860Z,11.70
2019-03-16T17:27:39.250Z,11.60
2019-03-16T17:30:13.234Z,11.60
2019-03-16T17:32:41.757Z,11.60
2019-03-16T17:35:10.744Z,11.60
2019-03-16T17:37:40.045Z,11.60
2019-03-16T17:40:09.438Z,11.50
2019-03-16T17:42:38.183Z,11.60
2019-03-16T17:45:07.464Z,11.50
2019-03-16T17:47:36.208Z,11.50
2019-03-16T17:50:05.620Z,11.40
2019-03-16T17:52:34.432Z,11.50
2019-03-16T17:55:03.244Z,11.40
2019-03-16T17:57:31.974Z,11.40
2019-03-16T18:00:00.716Z,11.40
2019-03-16T18:02:30.560Z,11.40
2019-03-16T18:04:59.546Z,11.40
2019-03-16T18:07:28.574Z,11.30
2019-03-16T18:10:00.029Z,11.40
2019-03-16T18:12:30.421Z,11.30
2019-03-16T18:14:59.157Z,11.30
2019-03-16T18:17:27.907Z,11.30
2019-03-16T18:19:58.253Z,11.30
2019-03-16T18:22:29.174Z,11.20
2019-03-16T18:25:00.168Z,11.20
2019-03-16T18:27:33.322Z,11.20
2019-03-16T18:30:03.934Z,11.20
2019-03-16T18:32:33.347Z,11.30
2019-03-16T18:35:02.079Z,11.30
2019-03-16T18:37:35.640Z,11.20
2019-03-16T18:40:05.581Z,11.10
2019-03-16T18:42:37.642Z,11.10
2019-03-16T18:45:12.445Z,11.10
2019-03-16T18:47:43.779Z,11.10
2019-03-16T18:50:12.739Z,11.10
2019-03-16T18:52:41.651Z,11.10
2019-03-16T18:55:11.210Z,11.00
2019-03-16T18:57:40.602Z,10.90
2019-03-16T19:00:10.726Z,10.80
2019-03-16T19:02:39.548Z,10.70
2019-03-16T19:05:08.818Z,10.50
2019-03-16T19:07:40.802Z,10.50
2019-03-16T19:10:10.593Z,10.60
2019-03-16T19:12:39.628Z,10.70
2019-03-16T19:15:10.724Z,10.60
2019-03-16T19:17:40.317Z,10.60
2019-03-16T19:20:10.809Z,10.60
2019-03-16T19:22:39.747Z,10.60
2019-03-16T19:25:10.315Z,10.50
2019-03-16T19:27:39.505Z,10.40
2019-03-16T19:30:10.262Z,10.40
2019-03-16T19:32:39.047Z,10.50
2019-03-16T19:35:07.894Z,10.50
2019-03-16T19:37:36.628Z,10.40
2019-03-16T19:40:06.512Z,10.40
2019-03-16T19:42:35.255Z,10.40
2019-03-16T19:45:04.517Z,10.30
2019-03-16T19:47:33.333Z,10.30
2019-03-16T19:50:02.074Z,10.20
2019-03-16T19:52:30.805Z,10.20
2019-03-16T19:54:59.571Z,10.00
2019-03-16T19:57:28.399Z,9.90
2019-03-16T19:59:57.145Z,9.80
2019-03-16T20:02:25.955Z,9.60
2019-03-16T20:04:54.693Z,9.50
2019-03-16T20:07:23.542Z,9.50
2019-03-16T20:09:52.271Z,9.40
2019-03-16T20:12:21.144Z,9.20
2019-03-16T20:14:51.341Z,9.10
2019-03-16T20:17:20.089Z,8.90
2019-03-16T20:19:48.839Z,8.80
2019-03-16T20:22:17.643Z,8.70
2019-03-16T20:24:46.381Z,8.60
2019-03-16T20:27:15.130Z,8.60
2019-03-16T20:29:43.946Z,8.50
2019-03-16T20:32:12.692Z,8.40
2019-03-16T20:34:41.422Z,8.30
2019-03-16T20:37:10.340Z,8.20
2019-03-16T20:39:39.068Z,8.20
2019-03-16T20:42:07.817Z,8.20
2019-03-16T20:44:36.562Z,8.20
2019-03-16T20:47:05.321Z,8.10
2019-03-16T20:49:34.225Z,8.10
2019-03-16T20:52:03.039Z,8.00
2019-03-16T20:54:31.770Z,8.00
2019-03-16T20:57:00.528Z,8.10
2019-03-16T20:59:29.267Z,8.10
2019-03-16T21:01:58.032Z,8.10
2019-03-16T21:04:26.776Z,8.00
2019-03-16T21:06:55.531Z,8.10
2019-03-16T21:09:24.432Z,7.90
2019-03-16T21:11:53.316Z,7.90
2019-03-16T21:14:22.064Z,7.90
2019-03-16T21:16:50.873Z,7.90
2019-03-16T21:19:19.607Z,7.80
2019-03-16T21:21:48.382Z,8.00
2019-03-16T21:24:17.188Z,8.00
2019-03-16T21:26:52.322Z,7.90
2019-03-16T21:29:16.795Z,7.80
2019-03-16T21:31:45.802Z,7.90
2019-03-16T21:34:14.644Z,7.80
2019-03-16T21:36:43.546Z,7.90
2019-03-16T21:39:12.495Z,7.90
2019-03-16T21:41:44.235Z,8.10
2019-03-16T21:44:12.340Z,8.10
2019-03-16T21:46:43.740Z,8.20
2019-03-16T21:49:11.771Z,8.10
2019-03-16T21:51:40.756Z,8.00
2019-03-16T21:54:10.607Z,8.10
2019-03-16T21:56:39.585Z,8.20
2019-03-16T21:59:10.425Z,8.10
2019-03-16T22:01:39.524Z,8.00
2019-03-16T22:04:08.475Z,8.10
2019-03-16T22:06:37.407Z,8.00
2019-03-16T22:09:07.287Z,8.00
2019-03-16T22:11:36.511Z,7.90
2019-03-16T22:14:05.951Z,7.90
2019-03-16T22:16:34.851Z,7.80
2019-03-16T22:19:03.659Z,7.80
2019-03-16T22:21:33.332Z,7.70
2019-03-16T22:24:02.219Z,7.70
2019-03-16T22:26:31.500Z,7.60
2019-03-16T22:29:00.388Z,7.70
2019-03-16T22:31:29.259Z,7.80
2019-03-16T22:33:58.227Z,7.90
2019-03-16T22:36:27.257Z,7.80
2019-03-16T22:38:56.388Z,7.90
2019-03-16T22:41:25.451Z,8.10
2019-03-16T22:43:57.336Z,8.00
2019-03-16T22:46:26.387Z,8.10
2019-03-16T22:48:55.187Z,8.20
2019-03-16T22:51:24.014Z,8.20
2019-03-16T22:53:52.889Z,8.10
2019-03-16T22:56:21.847Z,8.10
2019-03-16T22:58:50.698Z,8.10
2019-03-16T23:01:19.938Z,8.10
2019-03-16T23:03:48.952Z,8.00
2019-03-16T23:06:17.938Z,8.00
2019-03-16T23:08:47.111Z,8.00
2019-03-16T23:11:16.007Z,7.90
2019-03-16T23:13:45.046Z,8.00
2019-03-16T23:16:13.942Z,8.10
2019-03-16T23:18:43.798Z,8.10
2019-03-16T23:21:13.775Z,8.10
2019-03-16T23:23:42.788Z,8.00
2019-03-16T23:26:11.705Z,7.90
2019-03-16T23:28:40.446Z,8.00
2019-03-16T23:31:09.185Z,8.10
2019-03-16T23:33:37.916Z,8.10
2019-03-16T23:36:06.636Z,8.10
2019-03-16T23:38:36.294Z,8.00
2019-03-16T23:41:05.102Z,7.90
2019-03-16T23:43:35.393Z,7.80
2019-03-16T23:46:04.159Z,7.70
2019-03-16T23:48:33.044Z,7.70
2019-03-16T23:51:01.869Z,7.60
2019-03-16T23:53:30.628Z,7.40
2019-03-16T23:55:59.539Z,7.30
2019-03-16T23:58:28.521Z,7.30
